sensor_id;sensor_type;location;lat;lon;timestamp;P1;durP1;ratioP1;P2;durP2;ratioP2
10701;SDS011;5402;50.004;8.246;2024-03-02T00:00:36;12.50;;;6.87;;
10701;SDS011;5402;50.004;8.246;2024-03-02T00:03:05;9.60;;;6.77;;
10701;SDS011;5402;50.004;8.246;2024-03-02T00:05:34;11.57;;;7.77;;
10701;SDS011;5402;50.004;8.246;2024-03-02T00:08:01;11.03;;;7.27;;
10701;SDS011;5402;50.004;8.246;2024-03-02T00:10:34;12.03;;;7.87;;
10701;SDS011;5402;50.004;8.246;2024-03-02T00:13:04;12.73;;;7.60;;
10701;SDS011;5402;50.004;8.246;2024-03-02T00:15:37;10.50;;;7.47;;
10701;SDS011;5402;50.004;8.246;2024-03-02T00:18:08;12.17;;;7.23;;
10701;SDS011;5402;50.004;8.246;2024-03-02T00:20:37;9.97;;;7.27;;
10701;SDS011;5402;50.004;8.246;2024-03-02T00:23:04;9.67;;;7.10;;
10701;SDS011;5402;50.004;8.246;2024-03-02T00:25:36;12.37;;;7.43;;
10701;SDS011;5402;50.004;8.246;2024-03-02T00:28:04;9.17;;;6.13;;
10701;SDS011;5402;50.004;8.246;2024-03-02T00:30:41;10.33;;;6.43;;
10701;SDS011;5402;50.004;8.246;2024-03-02T00:33:25;10.47;;;6.63;;
10701;SDS011;5402;50.004;8.246;2024-03-02T00:35:53;12.23;;;6.87;;
10701;SDS011;5402;50.004;8.246;2024-03-02T00:38:21;11.07;;;7.27;;
10701;SDS011;5402;50.004;8.246;2024-03-02T00:40:49;10.07;;;7.13;;
10701;SDS011;5402;50.004;8.246;2024-03-02T00:46:10;8.87;;;7.00;;
10701;SDS011;5402;50.004;8.246;2024-03-02T00:48:40;13.23;;;7.80;;
10701;SDS011;5402;50.004;8.246;2024-03-02T00:51:17;13.47;;;7.90;;
10701;SDS011;5402;50.004;8.246;2024-03-02T00:53:44;11.40;;;7.73;;
10701;SDS011;5402;50.004;8.246;2024-03-02T00:56:11;10.77;;;7.43;;
10701;SDS011;5402;50.004;8.246;2024-03-02T00:58:38;9.83;;;6.57;;
10701;SDS011;5402;50.004;8.246;2024-03-02T01:01:05;10.97;;;7.53;;
10701;SDS011;5402;50.004;8.246;2024-03-02T01:03:32;9.40;;;7.07;;
10701;SDS011;5402;50.004;8.246;2024-03-02T01:06:00;10.30;;;7.77;;
10701;SDS011;5402;50.004;8.246;2024-03-02T01:08:27;9.40;;;6.50;;
10701;SDS011;5402;50.004;8.246;2024-03-02T01:10:54;9.63;;;7.30;;
10701;SDS011;5402;50.004;8.246;2024-03-02T01:13:21;9.67;;;7.10;;
10701;SDS011;5402;50.004;8.246;2024-03-02T01:15:48;9.47;;;7.20;;
10701;SDS011;5402;50.004;8.246;2024-03-02T01:18:14;10.27;;;7.43;;
10701;SDS011;5402;50.004;8.246;2024-03-02T01:20:41;13.10;;;7.37;;
10701;SDS011;5402;50.004;8.246;2024-03-02T01:23:09;10.30;;;7.00;;
10701;SDS011;5402;50.004;8.246;2024-03-02T01:25:36;10.53;;;7.53;;
10701;SDS011;5402;50.004;8.246;2024-03-02T01:28:03;9.13;;;6.70;;
10701;SDS011;5402;50.004;8.246;2024-03-02T01:30:30;8.97;;;6.70;;
10701;SDS011;5402;50.004;8.246;2024-03-02T01:32:57;8.57;;;6.40;;
10701;SDS011;5402;50.004;8.246;2024-03-02T01:35:25;10.63;;;6.47;;
10701;SDS011;5402;50.004;8.246;2024-03-02T01:37:52;10.10;;;6.93;;
10701;SDS011;5402;50.004;8.246;2024-03-02T01:40:20;13.30;;;7.53;;
10701;SDS011;5402;50.004;8.246;2024-03-02T01:42:51;10.83;;;7.00;;
10701;SDS011;5402;50.004;8.246;2024-03-02T01:45:18;11.93;;;6.83;;
10701;SDS011;5402;50.004;8.246;2024-03-02T01:47:46;9.43;;;7.30;;
10701;SDS011;5402;50.004;8.246;2024-03-02T01:50:13;9.63;;;6.97;;
10701;SDS011;5402;50.004;8.246;2024-03-02T01:52:41;9.63;;;6.67;;
10701;SDS011;5402;50.004;8.246;2024-03-02T01:55:09;10.93;;;6.93;;
10701;SDS011;5402;50.004;8.246;2024-03-02T01:57:38;10.67;;;7.00;;
10701;SDS011;5402;50.004;8.246;2024-03-02T02:00:05;8.87;;;6.53;;
10701;SDS011;5402;50.004;8.246;2024-03-02T02:02:34;12.47;;;6.93;;
10701;SDS011;5402;50.004;8.246;2024-03-02T02:05:01;11.30;;;6.93;;
10701;SDS011;5402;50.004;8.246;2024-03-02T02:07:28;9.53;;;6.93;;
10701;SDS011;5402;50.004;8.246;2024-03-02T02:09:55;11.97;;;6.53;;
10701;SDS011;5402;50.004;8.246;2024-03-02T02:12:23;9.73;;;6.93;;
10701;SDS011;5402;50.004;8.246;2024-03-02T02:14:52;9.03;;;6.67;;
10701;SDS011;5402;50.004;8.246;2024-03-02T02:17:18;10.47;;;7.70;;
10701;SDS011;5402;50.004;8.246;2024-03-02T02:19:45;9.23;;;6.10;;
10701;SDS011;5402;50.004;8.246;2024-03-02T02:22:14;10.43;;;6.60;;
10701;SDS011;5402;50.004;8.246;2024-03-02T02:24:41;8.60;;;5.83;;
10701;SDS011;5402;50.004;8.246;2024-03-02T02:27:08;10.07;;;6.70;;
10701;SDS011;5402;50.004;8.246;2024-03-02T02:29:35;10.83;;;6.67;;
10701;SDS011;5402;50.004;8.246;2024-03-02T02:32:01;9.53;;;6.90;;
10701;SDS011;5402;50.004;8.246;2024-03-02T02:34:29;8.23;;;6.57;;
10701;SDS011;5402;50.004;8.246;2024-03-02T02:36:55;9.70;;;6.53;;
10701;SDS011;5402;50.004;8.246;2024-03-02T02:39:23;9.37;;;6.73;;
10701;SDS011;5402;50.004;8.246;2024-03-02T02:41:50;10.87;;;6.80;;
10701;SDS011;5402;50.004;8.246;2024-03-02T02:44:17;9.30;;;6.47;;
10701;SDS011;5402;50.004;8.246;2024-03-02T02:46:44;9.10;;;6.77;;
10701;SDS011;5402;50.004;8.246;2024-03-02T02:49:11;10.07;;;6.77;;
10701;SDS011;5402;50.004;8.246;2024-03-02T02:51:39;12.67;;;7.40;;
10701;SDS011;5402;50.004;8.246;2024-03-02T02:54:06;9.47;;;6.53;;
10701;SDS011;5402;50.004;8.246;2024-03-02T02:56:34;7.90;;;6.37;;
10701;SDS011;5402;50.004;8.246;2024-03-02T02:59:01;11.00;;;7.17;;
10701;SDS011;5402;50.004;8.246;2024-03-02T03:01:27;11.00;;;7.17;;
10701;SDS011;5402;50.004;8.246;2024-03-02T03:03:54;10.13;;;6.67;;
10701;SDS011;5402;50.004;8.246;2024-03-02T03:06:21;9.23;;;6.53;;
10701;SDS011;5402;50.004;8.246;2024-03-02T03:08:47;8.97;;;6.77;;
10701;SDS011;5402;50.004;8.246;2024-03-02T03:11:14;9.90;;;6.93;;
10701;SDS011;5402;50.004;8.246;2024-03-02T03:13:42;8.83;;;6.47;;
10701;SDS011;5402;50.004;8.246;2024-03-02T03:16:09;8.10;;;5.97;;
10701;SDS011;5402;50.004;8.246;2024-03-02T03:18:35;10.67;;;6.93;;
10701;SDS011;5402;50.004;8.246;2024-03-02T03:21:03;9.10;;;6.23;;
10701;SDS011;5402;50.004;8.246;2024-03-02T03:23:30;10.37;;;6.10;;
10701;SDS011;5402;50.004;8.246;2024-03-02T03:25:56;9.53;;;6.40;;
10701;SDS011;5402;50.004;8.246;2024-03-02T03:28:24;8.07;;;5.97;;
10701;SDS011;5402;50.004;8.246;2024-03-02T03:30:52;11.17;;;6.63;;
10701;SDS011;5402;50.004;8.246;2024-03-02T03:33:19;10.70;;;7.10;;
10701;SDS011;5402;50.004;8.246;2024-03-02T03:35:46;9.37;;;6.70;;
10701;SDS011;5402;50.004;8.246;2024-03-02T03:38:14;9.63;;;6.93;;
10701;SDS011;5402;50.004;8.246;2024-03-02T03:40:41;10.70;;;7.03;;
10701;SDS011;5402;50.004;8.246;2024-03-02T03:43:08;9.70;;;6.63;;
10701;SDS011;5402;50.004;8.246;2024-03-02T03:45:35;9.67;;;6.40;;
10701;SDS011;5402;50.004;8.246;2024-03-02T03:48:03;8.97;;;6.33;;
10701;SDS011;5402;50.004;8.246;2024-03-02T03:50:31;8.47;;;6.57;;
10701;SDS011;5402;50.004;8.246;2024-03-02T03:52:57;9.30;;;6.27;;
10701;SDS011;5402;50.004;8.246;2024-03-02T03:55:24;9.60;;;6.67;;
10701;SDS011;5402;50.004;8.246;2024-03-02T03:57:51;10.90;;;6.87;;
10701;SDS011;5402;50.004;8.246;2024-03-02T04:00:18;10.33;;;6.57;;
10701;SDS011;5402;50.004;8.246;2024-03-02T04:02:45;9.10;;;7.10;;
10701;SDS011;5402;50.004;8.246;2024-03-02T04:05:13;10.20;;;7.03;;
10701;SDS011;5402;50.004;8.246;2024-03-02T04:07:39;11.20;;;7.23;;
10701;SDS011;5402;50.004;8.246;2024-03-02T04:10:09;9.40;;;6.43;;
10701;SDS011;5402;50.004;8.246;2024-03-02T04:12:37;10.07;;;6.80;;
10701;SDS011;5402;50.004;8.246;2024-03-02T04:15:04;10.70;;;6.70;;
10701;SDS011;5402;50.004;8.246;2024-03-02T04:17:31;10.10;;;6.77;;
10701;SDS011;5402;50.004;8.246;2024-03-02T04:20:00;10.43;;;7.47;;
10701;SDS011;5402;50.004;8.246;2024-03-02T04:22:32;10.33;;;6.97;;
10701;SDS011;5402;50.004;8.246;2024-03-02T04:24:59;10.57;;;6.77;;
10701;SDS011;5402;50.004;8.246;2024-03-02T04:27:26;9.90;;;6.57;;
10701;SDS011;5402;50.004;8.246;2024-03-02T04:29:53;11.20;;;7.20;;
10701;SDS011;5402;50.004;8.246;2024-03-02T04:32:20;9.87;;;6.73;;
10701;SDS011;5402;50.004;8.246;2024-03-02T04:34:49;10.20;;;7.07;;
10701;SDS011;5402;50.004;8.246;2024-03-02T04:37:16;9.93;;;7.43;;
10701;SDS011;5402;50.004;8.246;2024-03-02T04:39:47;11.03;;;7.33;;
10701;SDS011;5402;50.004;8.246;2024-03-02T04:42:13;10.00;;;6.73;;
10701;SDS011;5402;50.004;8.246;2024-03-02T04:44:40;11.13;;;6.50;;
10701;SDS011;5402;50.004;8.246;2024-03-02T04:47:07;11.07;;;7.00;;
10701;SDS011;5402;50.004;8.246;2024-03-02T04:49:34;9.17;;;6.37;;
10701;SDS011;5402;50.004;8.246;2024-03-02T04:52:00;8.07;;;6.43;;
10701;SDS011;5402;50.004;8.246;2024-03-02T04:54:27;12.00;;;7.10;;
10701;SDS011;5402;50.004;8.246;2024-03-02T04:56:56;13.77;;;6.90;;
10701;SDS011;5402;50.004;8.246;2024-03-02T04:59:23;8.50;;;6.50;;
10701;SDS011;5402;50.004;8.246;2024-03-02T05:01:50;13.77;;;6.67;;
10701;SDS011;5402;50.004;8.246;2024-03-02T05:04:17;10.07;;;7.20;;
10701;SDS011;5402;50.004;8.246;2024-03-02T05:06:44;9.80;;;6.83;;
10701;SDS011;5402;50.004;8.246;2024-03-02T05:09:17;11.83;;;6.80;;
10701;SDS011;5402;50.004;8.246;2024-03-02T05:11:44;10.60;;;6.90;;
10701;SDS011;5402;50.004;8.246;2024-03-02T05:14:25;12.50;;;6.97;;
10701;SDS011;5402;50.004;8.246;2024-03-02T05:16:51;10.27;;;7.43;;
10701;SDS011;5402;50.004;8.246;2024-03-02T05:19:18;11.17;;;6.73;;
10701;SDS011;5402;50.004;8.246;2024-03-02T05:21:44;11.43;;;7.67;;
10701;SDS011;5402;50.004;8.246;2024-03-02T05:24:11;11.40;;;7.43;;
10701;SDS011;5402;50.004;8.246;2024-03-02T05:26:39;11.10;;;7.00;;
10701;SDS011;5402;50.004;8.246;2024-03-02T05:29:06;10.60;;;7.07;;
10701;SDS011;5402;50.004;8.246;2024-03-02T05:31:34;10.90;;;7.40;;
10701;SDS011;5402;50.004;8.246;2024-03-02T05:34:01;11.90;;;7.50;;
10701;SDS011;5402;50.004;8.246;2024-03-02T05:36:27;10.97;;;7.23;;
10701;SDS011;5402;50.004;8.246;2024-03-02T05:38:55;11.20;;;7.57;;
10701;SDS011;5402;50.004;8.246;2024-03-02T05:41:22;11.17;;;7.60;;
10701;SDS011;5402;50.004;8.246;2024-03-02T05:43:48;11.90;;;7.10;;
10701;SDS011;5402;50.004;8.246;2024-03-02T05:46:15;11.67;;;7.27;;
10701;SDS011;5402;50.004;8.246;2024-03-02T05:48:43;11.03;;;7.47;;
10701;SDS011;5402;50.004;8.246;2024-03-02T05:51:10;11.77;;;7.60;;
10701;SDS011;5402;50.004;8.246;2024-03-02T05:53:36;12.53;;;8.13;;
10701;SDS011;5402;50.004;8.246;2024-03-02T05:56:04;13.20;;;8.57;;
10701;SDS011;5402;50.004;8.246;2024-03-02T05:58:31;12.60;;;8.10;;
10701;SDS011;5402;50.004;8.246;2024-03-02T06:01:11;14.37;;;8.00;;
10701;SDS011;5402;50.004;8.246;2024-03-02T06:03:38;12.83;;;8.07;;
10701;SDS011;5402;50.004;8.246;2024-03-02T06:06:06;10.60;;;7.87;;
10701;SDS011;5402;50.004;8.246;2024-03-02T06:08:32;14.17;;;7.97;;
10701;SDS011;5402;50.004;8.246;2024-03-02T06:11:00;13.40;;;8.57;;
10701;SDS011;5402;50.004;8.246;2024-03-02T06:13:27;10.97;;;8.10;;
10701;SDS011;5402;50.004;8.246;2024-03-02T06:15:53;14.90;;;7.87;;
10701;SDS011;5402;50.004;8.246;2024-03-02T06:18:20;11.17;;;8.43;;
10701;SDS011;5402;50.004;8.246;2024-03-02T06:20:47;12.73;;;8.67;;
10701;SDS011;5402;50.004;8.246;2024-03-02T06:23:15;11.57;;;8.13;;
10701;SDS011;5402;50.004;8.246;2024-03-02T06:25:42;11.43;;;8.70;;
10701;SDS011;5402;50.004;8.246;2024-03-02T06:28:08;13.63;;;8.80;;
10701;SDS011;5402;50.004;8.246;2024-03-02T06:30:35;12.83;;;8.93;;
10701;SDS011;5402;50.004;8.246;2024-03-02T06:33:02;15.00;;;8.87;;
10701;SDS011;5402;50.004;8.246;2024-03-02T06:35:31;12.23;;;8.67;;
10701;SDS011;5402;50.004;8.246;2024-03-02T06:37:57;14.03;;;9.53;;
10701;SDS011;5402;50.004;8.246;2024-03-02T06:40:25;14.33;;;9.87;;
10701;SDS011;5402;50.004;8.246;2024-03-02T06:42:52;17.80;;;10.20;;
10701;SDS011;5402;50.004;8.246;2024-03-02T06:45:20;12.87;;;9.20;;
10701;SDS011;5402;50.004;8.246;2024-03-02T06:47:46;14.10;;;10.23;;
10701;SDS011;5402;50.004;8.246;2024-03-02T06:50:13;14.23;;;9.77;;
10701;SDS011;5402;50.004;8.246;2024-03-02T06:52:40;14.50;;;10.17;;
10701;SDS011;5402;50.004;8.246;2024-03-02T06:55:07;13.43;;;9.97;;
10701;SDS011;5402;50.004;8.246;2024-03-02T06:57:35;13.87;;;9.60;;
10701;SDS011;5402;50.004;8.246;2024-03-02T07:00:02;12.80;;;9.27;;
10701;SDS011;5402;50.004;8.246;2024-03-02T07:02:30;14.00;;;9.53;;
10701;SDS011;5402;50.004;8.246;2024-03-02T07:04:57;17.20;;;9.57;;
10701;SDS011;5402;50.004;8.246;2024-03-02T07:07:27;11.87;;;8.97;;
10701;SDS011;5402;50.004;8.246;2024-03-02T07:09:54;14.37;;;9.17;;
10701;SDS011;5402;50.004;8.246;2024-03-02T07:12:20;17.17;;;10.37;;
10701;SDS011;5402;50.004;8.246;2024-03-02T07:14:48;15.13;;;9.60;;
10701;SDS011;5402;50.004;8.246;2024-03-02T07:17:36;14.30;;;9.97;;
10701;SDS011;5402;50.004;8.246;2024-03-02T07:20:03;16.60;;;10.00;;
10701;SDS011;5402;50.004;8.246;2024-03-02T07:22:31;15.83;;;10.73;;
10701;SDS011;5402;50.004;8.246;2024-03-02T07:24:58;13.80;;;9.33;;
10701;SDS011;5402;50.004;8.246;2024-03-02T07:27:24;16.47;;;10.77;;
10701;SDS011;5402;50.004;8.246;2024-03-02T07:29:53;13.27;;;9.63;;
10701;SDS011;5402;50.004;8.246;2024-03-02T07:32:19;15.50;;;10.83;;
10701;SDS011;5402;50.004;8.246;2024-03-02T07:34:46;15.70;;;11.17;;
10701;SDS011;5402;50.004;8.246;2024-03-02T07:37:13;16.60;;;10.50;;
10701;SDS011;5402;50.004;8.246;2024-03-02T07:39:39;17.97;;;10.90;;
10701;SDS011;5402;50.004;8.246;2024-03-02T07:42:06;17.27;;;11.67;;
10701;SDS011;5402;50.004;8.246;2024-03-02T07:44:33;20.67;;;10.97;;
10701;SDS011;5402;50.004;8.246;2024-03-02T07:47:01;15.57;;;10.53;;
10701;SDS011;5402;50.004;8.246;2024-03-02T07:49:28;17.10;;;11.37;;
10701;SDS011;5402;50.004;8.246;2024-03-02T07:51:55;20.23;;;11.57;;
10701;SDS011;5402;50.004;8.246;2024-03-02T07:54:21;17.07;;;11.47;;
10701;SDS011;5402;50.004;8.246;2024-03-02T07:56:48;18.83;;;11.50;;
10701;SDS011;5402;50.004;8.246;2024-03-02T07:59:15;17.17;;;10.73;;
10701;SDS011;5402;50.004;8.246;2024-03-02T08:01:42;19.67;;;10.90;;
10701;SDS011;5402;50.004;8.246;2024-03-02T08:04:10;17.10;;;10.50;;
10701;SDS011;5402;50.004;8.246;2024-03-02T08:06:37;17.47;;;10.73;;
10701;SDS011;5402;50.004;8.246;2024-03-02T08:09:04;16.13;;;10.33;;
10701;SDS011;5402;50.004;8.246;2024-03-02T08:11:34;15.10;;;10.67;;
10701;SDS011;5402;50.004;8.246;2024-03-02T08:14:02;20.23;;;12.00;;
10701;SDS011;5402;50.004;8.246;2024-03-02T08:16:29;15.70;;;10.40;;
10701;SDS011;5402;50.004;8.246;2024-03-02T08:18:56;16.67;;;10.30;;
10701;SDS011;5402;50.004;8.246;2024-03-02T08:21:24;18.73;;;11.63;;
10701;SDS011;5402;50.004;8.246;2024-03-02T08:23:51;20.47;;;11.73;;
10701;SDS011;5402;50.004;8.246;2024-03-02T08:26:18;16.60;;;11.57;;
10701;SDS011;5402;50.004;8.246;2024-03-02T08:28:45;17.43;;;11.27;;
10701;SDS011;5402;50.004;8.246;2024-03-02T08:31:11;16.00;;;10.47;;
10701;SDS011;5402;50.004;8.246;2024-03-02T08:33:38;19.23;;;11.67;;
10701;SDS011;5402;50.004;8.246;2024-03-02T08:36:05;18.87;;;11.40;;
10701;SDS011;5402;50.004;8.246;2024-03-02T08:38:36;15.77;;;10.77;;
10701;SDS011;5402;50.004;8.246;2024-03-02T08:41:02;19.07;;;11.40;;
10701;SDS011;5402;50.004;8.246;2024-03-02T08:43:30;16.20;;;10.67;;
10701;SDS011;5402;50.004;8.246;2024-03-02T08:45:57;14.50;;;9.20;;
10701;SDS011;5402;50.004;8.246;2024-03-02T08:48:24;14.67;;;10.27;;
10701;SDS011;5402;50.004;8.246;2024-03-02T08:50:51;16.67;;;10.43;;
10701;SDS011;5402;50.004;8.246;2024-03-02T08:53:18;15.57;;;10.93;;
10701;SDS011;5402;50.004;8.246;2024-03-02T08:55:46;15.03;;;10.13;;
10701;SDS011;5402;50.004;8.246;2024-03-02T08:58:13;14.23;;;10.20;;
10701;SDS011;5402;50.004;8.246;2024-03-02T09:00:40;15.33;;;9.83;;
10701;SDS011;5402;50.004;8.246;2024-03-02T09:03:07;14.93;;;9.47;;
10701;SDS011;5402;50.004;8.246;2024-03-02T09:05:33;14.43;;;10.50;;
10701;SDS011;5402;50.004;8.246;2024-03-02T09:08:00;12.87;;;9.67;;
10701;SDS011;5402;50.004;8.246;2024-03-02T09:10:28;14.10;;;9.83;;
10701;SDS011;5402;50.004;8.246;2024-03-02T09:12:56;14.80;;;10.40;;
10701;SDS011;5402;50.004;8.246;2024-03-02T09:15:24;14.93;;;10.33;;
10701;SDS011;5402;50.004;8.246;2024-03-02T09:17:51;15.33;;;10.53;;
10701;SDS011;5402;50.004;8.246;2024-03-02T09:20:17;15.83;;;9.97;;
10701;SDS011;5402;50.004;8.246;2024-03-02T09:22:44;12.87;;;9.43;;
10701;SDS011;5402;50.004;8.246;2024-03-02T09:25:12;14.07;;;10.00;;
10701;SDS011;5402;50.004;8.246;2024-03-02T09:27:39;15.87;;;10.60;;
10701;SDS011;5402;50.004;8.246;2024-03-02T09:30:09;16.07;;;10.97;;
10701;SDS011;5402;50.004;8.246;2024-03-02T09:32:36;15.93;;;10.27;;
10701;SDS011;5402;50.004;8.246;2024-03-02T09:35:04;15.30;;;10.43;;
10701;SDS011;5402;50.004;8.246;2024-03-02T09:37:30;13.33;;;9.40;;
10701;SDS011;5402;50.004;8.246;2024-03-02T09:39:57;24.87;;;16.63;;
10701;SDS011;5402;50.004;8.246;2024-03-02T09:42:24;13.53;;;9.37;;
10701;SDS011;5402;50.004;8.246;2024-03-02T09:44:52;16.00;;;9.30;;
10701;SDS011;5402;50.004;8.246;2024-03-02T09:47:20;12.37;;;9.13;;
10701;SDS011;5402;50.004;8.246;2024-03-02T09:49:47;11.30;;;8.53;;
10701;SDS011;5402;50.004;8.246;2024-03-02T09:52:14;14.30;;;10.47;;
10701;SDS011;5402;50.004;8.246;2024-03-02T09:54:41;15.57;;;10.23;;
10701;SDS011;5402;50.004;8.246;2024-03-02T09:57:08;15.00;;;9.00;;
10701;SDS011;5402;50.004;8.246;2024-03-02T09:59:35;13.20;;;9.17;;
10701;SDS011;5402;50.004;8.246;2024-03-02T10:02:02;12.00;;;8.90;;
10701;SDS011;5402;50.004;8.246;2024-03-02T10:04:33;13.17;;;8.93;;
10701;SDS011;5402;50.004;8.246;2024-03-02T10:09:44;11.40;;;8.13;;
10701;SDS011;5402;50.004;8.246;2024-03-02T10:12:13;13.50;;;8.87;;
10701;SDS011;5402;50.004;8.246;2024-03-02T10:14:41;14.57;;;9.83;;
10701;SDS011;5402;50.004;8.246;2024-03-02T10:17:08;14.53;;;10.17;;
10701;SDS011;5402;50.004;8.246;2024-03-02T10:19:37;13.03;;;9.17;;
10701;SDS011;5402;50.004;8.246;2024-03-02T10:22:05;11.47;;;8.17;;
10701;SDS011;5402;50.004;8.246;2024-03-02T10:24:36;14.17;;;8.77;;
10701;SDS011;5402;50.004;8.246;2024-03-02T10:27:07;12.90;;;8.83;;
10701;SDS011;5402;50.004;8.246;2024-03-02T10:29:38;13.03;;;8.60;;
10701;SDS011;5402;50.004;8.246;2024-03-02T10:32:07;13.43;;;8.90;;
10701;SDS011;5402;50.004;8.246;2024-03-02T10:34:37;15.57;;;9.63;;
10701;SDS011;5402;50.004;8.246;2024-03-02T10:37:06;11.87;;;8.77;;
10701;SDS011;5402;50.004;8.246;2024-03-02T10:39:34;14.37;;;8.97;;
10701;SDS011;5402;50.004;8.246;2024-03-02T10:42:01;10.97;;;8.20;;
10701;SDS011;5402;50.004;8.246;2024-03-02T10:44:29;14.20;;;9.20;;
10701;SDS011;5402;50.004;8.246;2024-03-02T10:46:57;12.13;;;8.47;;
10701;SDS011;5402;50.004;8.246;2024-03-02T10:49:26;13.40;;;8.77;;
10701;SDS011;5402;50.004;8.246;2024-03-02T10:51:54;10.50;;;7.63;;
10701;SDS011;5402;50.004;8.246;2024-03-02T10:54:21;12.70;;;7.90;;
10701;SDS011;5402;50.004;8.246;2024-03-02T10:56:51;10.67;;;8.23;;
10701;SDS011;5402;50.004;8.246;2024-03-02T10:59:21;10.67;;;7.83;;
10701;SDS011;5402;50.004;8.246;2024-03-02T11:01:53;9.87;;;7.63;;
10701;SDS011;5402;50.004;8.246;2024-03-02T11:04:23;19.67;;;14.67;;
10701;SDS011;5402;50.004;8.246;2024-03-02T11:06:51;13.13;;;8.60;;
10701;SDS011;5402;50.004;8.246;2024-03-02T11:09:20;8.90;;;7.17;;
10701;SDS011;5402;50.004;8.246;2024-03-02T11:11:49;13.37;;;7.30;;
10701;SDS011;5402;50.004;8.246;2024-03-02T11:14:23;11.30;;;7.97;;
10701;SDS011;5402;50.004;8.246;2024-03-02T11:16:51;13.47;;;7.77;;
10701;SDS011;5402;50.004;8.246;2024-03-02T11:19:19;12.70;;;8.00;;
10701;SDS011;5402;50.004;8.246;2024-03-02T11:21:46;9.03;;;6.87;;
10701;SDS011;5402;50.004;8.246;2024-03-02T11:27:00;10.80;;;7.80;;
10701;SDS011;5402;50.004;8.246;2024-03-02T11:29:43;10.50;;;7.53;;
10701;SDS011;5402;50.004;8.246;2024-03-02T11:32:18;10.27;;;7.43;;
10701;SDS011;5402;50.004;8.246;2024-03-02T11:34:48;11.33;;;7.63;;
10701;SDS011;5402;50.004;8.246;2024-03-02T11:37:16;10.57;;;7.87;;
10701;SDS011;5402;50.004;8.246;2024-03-02T11:39:45;10.53;;;6.77;;
10701;SDS011;5402;50.004;8.246;2024-03-02T11:42:13;11.90;;;7.70;;
10701;SDS011;5402;50.004;8.246;2024-03-02T11:44:41;9.33;;;7.00;;
10701;SDS011;5402;50.004;8.246;2024-03-02T11:47:10;10.17;;;6.70;;
10701;SDS011;5402;50.004;8.246;2024-03-02T11:49:40;10.17;;;7.00;;
10701;SDS011;5402;50.004;8.246;2024-03-02T11:52:11;8.83;;;6.87;;
10701;SDS011;5402;50.004;8.246;2024-03-02T11:54:40;10.57;;;6.60;;
10701;SDS011;5402;50.004;8.246;2024-03-02T11:57:13;9.73;;;6.20;;
10701;SDS011;5402;50.004;8.246;2024-03-02T11:59:40;10.07;;;6.60;;
10701;SDS011;5402;50.004;8.246;2024-03-02T12:02:12;8.13;;;5.97;;
10701;SDS011;5402;50.004;8.246;2024-03-02T12:04:43;8.90;;;6.07;;
10701;SDS011;5402;50.004;8.246;2024-03-02T12:07:10;10.10;;;6.10;;
10701;SDS011;5402;50.004;8.246;2024-03-02T12:09:38;8.53;;;5.50;;
10701;SDS011;5402;50.004;8.246;2024-03-02T12:12:06;8.37;;;6.10;;
10701;SDS011;5402;50.004;8.246;2024-03-02T12:14:36;8.17;;;5.70;;
10701;SDS011;5402;50.004;8.246;2024-03-02T12:17:04;9.70;;;5.63;;
10701;SDS011;5402;50.004;8.246;2024-03-02T12:19:33;8.67;;;5.80;;
10701;SDS011;5402;50.004;8.246;2024-03-02T12:22:00;8.27;;;5.80;;
10701;SDS011;5402;50.004;8.246;2024-03-02T12:24:31;8.27;;;5.60;;
10701;SDS011;5402;50.004;8.246;2024-03-02T12:26:57;9.50;;;6.20;;
10701;SDS011;5402;50.004;8.246;2024-03-02T12:29:25;8.30;;;5.77;;
10701;SDS011;5402;50.004;8.246;2024-03-02T12:31:54;6.70;;;5.47;;
10701;SDS011;5402;50.004;8.246;2024-03-02T12:34:21;8.23;;;5.63;;
10701;SDS011;5402;50.004;8.246;2024-03-02T12:36:49;7.60;;;5.80;;
10701;SDS011;5402;50.004;8.246;2024-03-02T12:39:18;12.10;;;6.37;;
10701;SDS011;5402;50.004;8.246;2024-03-02T12:41:47;8.67;;;6.23;;
10701;SDS011;5402;50.004;8.246;2024-03-02T12:44:17;6.97;;;4.97;;
10701;SDS011;5402;50.004;8.246;2024-03-02T12:46:44;7.03;;;5.57;;
10701;SDS011;5402;50.004;8.246;2024-03-02T12:49:13;8.53;;;5.60;;
10701;SDS011;5402;50.004;8.246;2024-03-02T12:51:41;7.90;;;5.63;;
10701;SDS011;5402;50.004;8.246;2024-03-02T12:54:09;8.17;;;5.40;;
10701;SDS011;5402;50.004;8.246;2024-03-02T12:56:40;9.07;;;5.67;;
10701;SDS011;5402;50.004;8.246;2024-03-02T12:59:17;10.03;;;5.43;;
10701;SDS011;5402;50.004;8.246;2024-03-02T13:01:55;7.37;;;4.77;;
10701;SDS011;5402;50.004;8.246;2024-03-02T13:04:25;7.07;;;5.40;;
10701;SDS011;5402;50.004;8.246;2024-03-02T13:06:53;6.60;;;5.13;;
10701;SDS011;5402;50.004;8.246;2024-03-02T13:09:23;6.20;;;4.40;;
10701;SDS011;5402;50.004;8.246;2024-03-02T13:11:50;8.87;;;5.53;;
10701;SDS011;5402;50.004;8.246;2024-03-02T13:14:17;4.90;;;4.27;;
10701;SDS011;5402;50.004;8.246;2024-03-02T13:16:44;5.10;;;4.27;;
10701;SDS011;5402;50.004;8.246;2024-03-02T13:19:12;7.50;;;4.87;;
10701;SDS011;5402;50.004;8.246;2024-03-02T13:21:40;6.70;;;4.73;;
10701;SDS011;5402;50.004;8.246;2024-03-02T13:24:09;6.53;;;5.53;;
10701;SDS011;5402;50.004;8.246;2024-03-02T13:26:36;6.90;;;4.53;;
10701;SDS011;5402;50.004;8.246;2024-03-02T13:29:02;8.57;;;4.83;;
10701;SDS011;5402;50.004;8.246;2024-03-02T13:31:29;7.07;;;5.17;;
10701;SDS011;5402;50.004;8.246;2024-03-02T13:33:56;5.60;;;4.37;;
10701;SDS011;5402;50.004;8.246;2024-03-02T13:36:23;6.13;;;4.57;;
10701;SDS011;5402;50.004;8.246;2024-03-02T13:38:51;4.80;;;4.27;;
10701;SDS011;5402;50.004;8.246;2024-03-02T13:41:19;4.60;;;3.83;;
10701;SDS011;5402;50.004;8.246;2024-03-02T13:43:46;5.90;;;4.47;;
10701;SDS011;5402;50.004;8.246;2024-03-02T13:46:15;4.87;;;3.60;;
10701;SDS011;5402;50.004;8.246;2024-03-02T13:48:44;5.00;;;3.33;;
10701;SDS011;5402;50.004;8.246;2024-03-02T13:51:10;6.23;;;3.70;;
10701;SDS011;5402;50.004;8.246;2024-03-02T13:53:37;5.13;;;3.70;;
10701;SDS011;5402;50.004;8.246;2024-03-02T13:56:08;5.40;;;3.90;;
10701;SDS011;5402;50.004;8.246;2024-03-02T13:58:34;4.23;;;3.60;;
10701;SDS011;5402;50.004;8.246;2024-03-02T14:01:03;6.40;;;3.60;;
10701;SDS011;5402;50.004;8.246;2024-03-02T14:03:33;5.97;;;3.70;;
10701;SDS011;5402;50.004;8.246;2024-03-02T14:06:00;5.97;;;3.37;;
10701;SDS011;5402;50.004;8.246;2024-03-02T14:08:28;4.10;;;3.33;;
10701;SDS011;5402;50.004;8.246;2024-03-02T14:10:55;5.13;;;3.47;;
10701;SDS011;5402;50.004;8.246;2024-03-02T14:13:26;5.30;;;2.90;;
10701;SDS011;5402;50.004;8.246;2024-03-02T14:15:53;4.60;;;3.40;;
10701;SDS011;5402;50.004;8.246;2024-03-02T14:18:20;3.57;;;2.97;;
10701;SDS011;5402;50.004;8.246;2024-03-02T14:20:47;3.40;;;2.83;;
10701;SDS011;5402;50.004;8.246;2024-03-02T14:23:17;4.63;;;3.10;;
10701;SDS011;5402;50.004;8.246;2024-03-02T14:25:44;3.00;;;2.40;;
10701;SDS011;5402;50.004;8.246;2024-03-02T14:28:11;5.20;;;3.17;;
10701;SDS011;5402;50.004;8.246;2024-03-02T14:30:39;4.60;;;3.10;;
10701;SDS011;5402;50.004;8.246;2024-03-02T14:33:06;3.33;;;2.50;;
10701;SDS011;5402;50.004;8.246;2024-03-02T14:35:33;3.30;;;2.50;;
10701;SDS011;5402;50.004;8.246;2024-03-02T14:38:00;3.93;;;2.50;;
10701;SDS011;5402;50.004;8.246;2024-03-02T14:40:28;3.57;;;2.53;;
10701;SDS011;5402;50.004;8.246;2024-03-02T14:42:54;3.93;;;2.60;;
10701;SDS011;5402;50.004;8.246;2024-03-02T14:45:21;3.30;;;3.00;;
10701;SDS011;5402;50.004;8.246;2024-03-02T14:47:50;4.93;;;3.00;;
10701;SDS011;5402;50.004;8.246;2024-03-02T14:50:18;4.90;;;3.37;;
10701;SDS011;5402;50.004;8.246;2024-03-02T14:52:45;4.93;;;3.13;;
10701;SDS011;5402;50.004;8.246;2024-03-02T14:55:11;4.23;;;3.40;;
10701;SDS011;5402;50.004;8.246;2024-03-02T14:57:41;3.67;;;3.03;;
10701;SDS011;5402;50.004;8.246;2024-03-02T15:00:09;4.63;;;3.13;;
10701;SDS011;5402;50.004;8.246;2024-03-02T15:02:36;6.03;;;3.70;;